createdAt,value
2018-03-22T00:01:00.790Z,25.41
2018-03-22T00:03:30.127Z,25.42
2018-03-22T00:05:59.185Z,25.42
2018-03-22T00:08:28.276Z,25.42
2018-03-22T00:10:57.326Z,25.41
2018-03-22T00:13:26.381Z,25.42
2018-03-22T00:15:55.462Z,25.42
2018-03-22T00:18:24.522Z,25.42
2018-03-22T00:20:53.589Z,25.42
2018-03-22T00:23:22.989Z,25.43
2018-03-22T00:25:52.090Z,25.42
2018-03-22T00:28:21.674Z,25.42
2018-03-22T00:30:50.753Z,25.44
2018-03-22T00:33:19.838Z,25.42
2018-03-22T00:35:48.861Z,25.42
2018-03-22T00:38:18.334Z,25.43
2018-03-22T00:40:47.385Z,25.42
2018-03-22T00:43:16.441Z,25.42
2018-03-22T00:45:45.920Z,25.43
2018-03-22T00:48:14.980Z,25.42
2018-03-22T00:50:44.041Z,25.42
2018-03-22T00:53:13.925Z,25.42
2018-03-22T00:55:42.993Z,25.41
2018-03-22T00:58:12.103Z,25.42
2018-03-22T01:00:41.215Z,25.43
2018-03-22T01:03:10.288Z,25.43
2018-03-22T01:05:39.358Z,25.43
2018-03-22T01:08:08.726Z,25.44
2018-03-22T01:10:37.784Z,25.42
2018-03-22T01:13:06.842Z,25.43
2018-03-22T01:15:36.273Z,25.43
2018-03-22T01:18:05.325Z,25.44
2018-03-22T01:20:34.395Z,25.43
2018-03-22T01:23:03.471Z,25.44
2018-03-22T01:25:32.530Z,25.44
2018-03-22T01:28:07.261Z,25.44
2018-03-22T01:30:37.505Z,25.44
2018-03-22T01:33:06.595Z,25.43
2018-03-22T01:35:35.671Z,25.44
2018-03-22T01:38:04.731Z,25.44
2018-03-22T01:40:33.803Z,25.44
2018-03-22T01:43:03.311Z,25.44
2018-03-22T01:45:32.402Z,25.43
2018-03-22T01:48:01.458Z,25.44
2018-03-22T01:50:30.834Z,25.43
2018-03-22T01:53:11.233Z,25.42
2018-03-22T01:55:41.010Z,25.41
2018-03-22T01:58:10.080Z,25.43
2018-03-22T02:00:39.133Z,25.42
2018-03-22T02:03:08.257Z,25.43
2018-03-22T02:05:37.313Z,25.44
2018-03-22T02:08:06.361Z,25.43
2018-03-22T02:10:35.838Z,25.44
2018-03-22T02:13:04.893Z,25.44
2018-03-22T02:15:33.964Z,25.44
2018-03-22T02:18:03.046Z,25.45
2018-03-22T02:20:32.120Z,25.44
2018-03-22T02:23:01.195Z,25.43
2018-03-22T02:25:30.271Z,25.42
2018-03-22T02:27:59.337Z,25.44
2018-03-22T02:30:28.394Z,25.42
2018-03-22T02:32:57.466Z,25.42
2018-03-22T02:35:26.594Z,25.42
2018-03-22T02:37:55.655Z,25.42
2018-03-22T02:40:24.994Z,25.41
2018-03-22T02:42:54.049Z,25.43
2018-03-22T02:45:23.107Z,25.42
2018-03-22T02:47:52.666Z,25.41
2018-03-22T02:50:21.780Z,25.42
2018-03-22T02:52:50.840Z,25.41
2018-03-22T02:55:20.259Z,25.41
2018-03-22T02:57:49.329Z,25.42
2018-03-22T03:00:18.390Z,25.41
2018-03-22T03:02:47.854Z,25.41
2018-03-22T03:05:16.964Z,25.41
2018-03-22T03:07:46.185Z,25.41
2018-03-22T03:10:15.553Z,25.41
2018-03-22T03:12:44.607Z,25.41
2018-03-22T03:15:13.673Z,25.41
2018-03-22T03:17:43.039Z,25.40
2018-03-22T03:20:12.101Z,25.40
2018-03-22T03:22:41.175Z,25.40
2018-03-22T03:25:10.421Z,25.39
2018-03-22T03:27:39.484Z,25.40
2018-03-22T03:30:08.542Z,25.39
2018-03-22T03:32:37.619Z,25.38
2018-03-22T03:35:06.685Z,25.38
2018-03-22T03:37:35.749Z,25.39
2018-03-22T03:40:04.932Z,25.39
2018-03-22T03:42:33.925Z,25.40
2018-03-22T03:45:02.985Z,25.39
2018-03-22T03:47:32.309Z,25.39
2018-03-22T03:50:01.401Z,25.39
2018-03-22T03:52:30.529Z,25.38
2018-03-22T03:54:59.978Z,25.39
2018-03-22T03:57:29.034Z,25.40
2018-03-22T03:59:58.090Z,25.39
2018-03-22T04:02:27.467Z,25.40
2018-03-22T04:04:56.523Z,25.40
2018-03-22T04:07:25.583Z,25.39
2018-03-22T04:09:54.589Z,25.36
2018-03-22T04:12:23.666Z,25.34
2018-03-22T04:14:52.729Z,25.30
2018-03-22T04:17:22.139Z,25.32
2018-03-22T04:19:51.197Z,25.31
2018-03-22T04:22:20.315Z,25.27
2018-03-22T04:24:49.764Z,25.27
2018-03-22T04:27:19.007Z,25.26
2018-03-22T04:29:48.068Z,25.23
2018-03-22T04:32:17.531Z,25.22
2018-03-22T04:34:46.585Z,25.20
2018-03-22T04:37:15.655Z,25.20
2018-03-22T04:39:44.739Z,25.16
2018-03-22T04:42:13.797Z,25.14
2018-03-22T04:44:42.855Z,25.14
2018-03-22T04:47:12.308Z,25.13
2018-03-22T04:49:41.374Z,25.12
2018-03-22T04:52:10.434Z,25.10
2018-03-22T04:54:39.530Z,25.08
2018-03-22T04:57:08.604Z,25.07
2018-03-22T04:59:37.662Z,25.07
2018-03-22T05:02:06.744Z,25.06
2018-03-22T05:04:35.810Z,25.03
2018-03-22T05:07:04.878Z,25.05
2018-03-22T05:09:34.314Z,25.04
2018-03-22T05:12:03.375Z,25.03
2018-03-22T05:14:32.429Z,25.01
2018-03-22T05:17:01.791Z,25.00
2018-03-22T05:19:30.866Z,25.01
2018-03-22T05:21:59.926Z,25.01
2018-03-22T05:24:29.320Z,25.00
2018-03-22T05:26:58.386Z,24.99
2018-03-22T05:29:27.453Z,25.00
2018-03-22T05:31:56.932Z,24.99
2018-03-22T05:34:26.035Z,24.97
2018-03-22T05:36:57.092Z,24.97
2018-03-22T05:39:25.956Z,24.94
2018-03-22T05:41:55.058Z,24.96
2018-03-22T05:44:24.141Z,24.96
2018-03-22T05:46:53.201Z,24.95
2018-03-22T05:49:22.262Z,24.96
2018-03-22T05:51:51.346Z,24.96
2018-03-22T05:54:20.409Z,24.94
2018-03-22T05:56:49.483Z,24.95
2018-03-22T05:59:18.938Z,24.93
2018-03-22T06:01:47.998Z,24.93
2018-03-22T06:04:17.056Z,24.92
2018-03-22T06:06:46.531Z,24.93
2018-03-22T06:09:15.584Z,24.93
2018-03-22T06:11:44.642Z,24.93
2018-03-22T06:14:14.429Z,24.90
2018-03-22T06:16:43.486Z,24.91
2018-03-22T06:19:12.558Z,24.90
2018-03-22T06:21:41.930Z,24.89
2018-03-22T06:24:11.009Z,24.89
2018-03-22T06:26:40.076Z,24.88
2018-03-22T06:29:09.165Z,24.86
2018-03-22T06:31:38.135Z,24.85
2018-03-22T06:34:07.193Z,24.85
2018-03-22T06:36:36.690Z,24.84
2018-03-22T06:39:05.276Z,24.85
2018-03-22T06:41:34.351Z,24.85
2018-03-22T06:44:03.790Z,24.84
2018-03-22T06:46:32.847Z,24.83
2018-03-22T06:49:01.911Z,24.81
2018-03-22T06:51:31.165Z,24.79
2018-03-22T06:54:00.235Z,24.80
2018-03-22T06:56:36.059Z,24.80
2018-03-22T06:59:05.122Z,24.79
2018-03-22T07:01:34.178Z,24.78
2018-03-22T07:04:03.503Z,24.78
2018-03-22T07:06:32.562Z,24.77
2018-03-22T07:09:01.626Z,24.76
2018-03-22T07:11:31.147Z,24.76
2018-03-22T07:14:00.201Z,24.75
2018-03-22T07:16:29.276Z,24.75
2018-03-22T07:18:58.392Z,24.76
2018-03-22T07:21:27.474Z,24.74
2018-03-22T07:23:56.578Z,24.74
2018-03-22T07:26:26.072Z,24.74
2018-03-22T07:28:55.163Z,24.73
2018-03-22T07:31:24.227Z,24.75
2018-03-22T07:33:53.308Z,24.73
2018-03-22T07:36:22.394Z,24.74
2018-03-22T07:38:51.469Z,24.75
2018-03-22T07:41:20.545Z,24.74
2018-03-22T07:43:49.413Z,24.76
2018-03-22T07:46:18.516Z,24.74
2018-03-22T07:48:47.599Z,24.76
2018-03-22T07:51:16.660Z,24.73
2018-03-22T07:53:45.636Z,24.73
2018-03-22T07:56:14.720Z,24.73
2018-03-22T07:58:43.789Z,24.73
2018-03-22T08:01:12.810Z,24.75
2018-03-22T08:03:43.914Z,24.78
2018-03-22T08:06:13.145Z,24.77
2018-03-22T08:08:44.708Z,24.78
2018-03-22T08:11:13.897Z,24.82
2018-03-22T08:13:42.963Z,24.86
2018-03-22T08:16:11.882Z,24.88
2018-03-22T08:18:40.946Z,24.89
2018-03-22T08:21:10.058Z,24.89
2018-03-22T08:23:39.143Z,24.90
2018-03-22T08:26:08.213Z,24.93
2018-03-22T08:28:37.287Z,24.91
2018-03-22T08:31:06.361Z,24.94
2018-03-22T08:33:35.467Z,24.94
2018-03-22T08:36:04.523Z,24.96
2018-03-22T08:38:33.594Z,24.95
2018-03-22T08:41:02.656Z,24.93
2018-03-22T08:43:31.714Z,24.93
2018-03-22T08:46:00.811Z,24.93
2018-03-22T08:48:29.878Z,24.86
2018-03-22T08:50:58.962Z,24.83
2018-03-22T08:53:28.660Z,24.80
2018-03-22T08:55:57.714Z,24.81
2018-03-22T08:58:26.789Z,24.80
2018-03-22T09:00:56.234Z,24.79
2018-03-22T09:03:25.509Z,24.79
2018-03-22T09:05:54.606Z,24.78
2018-03-22T09:08:23.778Z,24.74
2018-03-22T09:10:52.883Z,24.77
2018-03-22T09:13:26.515Z,24.81
2018-03-22T09:15:56.215Z,24.79
2018-03-22T09:18:25.731Z,24.73
2018-03-22T09:20:54.795Z,24.73
2018-03-22T09:23:23.861Z,24.74
2018-03-22T09:25:53.061Z,24.73
2018-03-22T09:28:22.746Z,24.72
2018-03-22T09:30:52.069Z,24.72
2018-03-22T09:33:21.616Z,24.74
2018-03-22T09:35:50.671Z,24.77
2018-03-22T09:38:19.748Z,24.83
2018-03-22T09:40:50.131Z,24.83
2018-03-22T09:43:19.186Z,24.85
2018-03-22T09:45:48.264Z,24.84
2018-03-22T09:48:17.633Z,24.81
2018-03-22T09:50:46.682Z,24.82
2018-03-22T09:53:15.758Z,24.80
2018-03-22T09:55:44.990Z,24.86
2018-03-22T09:58:14.062Z,24.80
2018-03-22T10:00:43.130Z,24.83
2018-03-22T10:03:12.226Z,24.84
2018-03-22T10:05:41.301Z,24.81
2018-03-22T10:08:10.370Z,24.81
2018-03-22T10:10:39.505Z,24.80
2018-03-22T10:13:08.497Z,24.80
2018-03-22T10:15:37.583Z,24.80
2018-03-22T10:18:06.681Z,24.79
2018-03-22T10:20:35.761Z,24.84
2018-03-22T10:23:04.842Z,24.84
2018-03-22T10:25:33.943Z,24.83
2018-03-22T10:28:03.003Z,24.83
2018-03-22T10:30:32.179Z,24.79
2018-03-22T10:33:01.551Z,24.83
2018-03-22T10:35:30.870Z,24.83
2018-03-22T10:37:59.946Z,24.80
2018-03-22T10:40:29.097Z,24.84
2018-03-22T10:42:58.162Z,24.81
2018-03-22T10:45:27.226Z,24.84
2018-03-22T10:47:56.305Z,24.85
2018-03-22T10:50:25.370Z,24.84
2018-03-22T10:52:54.430Z,24.87
2018-03-22T10:55:23.544Z,24.86
2018-03-22T10:57:52.616Z,24.88
2018-03-22T11:00:27.493Z,24.84
2018-03-22T11:02:57.154Z,24.82
2018-03-22T11:05:26.221Z,24.88
2018-03-22T11:07:55.616Z,24.87
2018-03-22T11:10:24.699Z,24.90
2018-03-22T11:12:53.773Z,24.92
2018-03-22T11:15:23.478Z,24.88
2018-03-22T11:17:52.561Z,24.90
2018-03-22T11:20:21.704Z,24.87
2018-03-22T11:22:50.783Z,24.88
2018-03-22T11:25:19.841Z,24.90
2018-03-22T11:27:48.903Z,24.85
2018-03-22T11:30:18.028Z,24.87
2018-03-22T11:32:47.102Z,24.89
2018-03-22T11:35:16.163Z,24.85
2018-03-22T11:37:45.261Z,24.82
2018-03-22T11:40:13.844Z,24.78
2018-03-22T11:42:42.931Z,24.79
2018-03-22T11:45:12.019Z,24.90
2018-03-22T11:47:41.158Z,24.98
2018-03-22T11:50:10.261Z,25.06
2018-03-22T11:52:39.619Z,25.14
2018-03-22T11:55:08.708Z,25.10
2018-03-22T11:57:37.734Z,25.09
2018-03-22T12:00:06.858Z,25.05
2018-03-22T12:02:35.939Z,25.14
2018-03-22T12:05:05.025Z,25.14
2018-03-22T12:07:34.147Z,25.14
2018-03-22T12:10:03.246Z,25.25
2018-03-22T12:12:32.396Z,25.16
2018-03-22T12:15:02.807Z,25.24
2018-03-22T12:17:31.881Z,25.15
2018-03-22T12:20:01.541Z,25.20
2018-03-22T12:22:30.662Z,25.29
2018-03-22T12:24:59.753Z,25.32
2018-03-22T12:27:29.245Z,25.31
2018-03-22T12:29:58.392Z,25.34
2018-03-22T12:32:27.587Z,25.44
2018-03-22T12:34:56.841Z,25.39
2018-03-22T12:37:26.146Z,25.46
2018-03-22T12:39:55.208Z,25.37
2018-03-22T12:42:24.316Z,25.51
2018-03-22T12:44:53.394Z,25.56
2018-03-22T12:49:50.587Z,25.57
2018-03-22T12:52:19.658Z,25.56
2018-03-22T12:54:49.911Z,25.56
2018-03-22T12:57:19.043Z,25.56
2018-03-22T12:59:48.118Z,25.58
2018-03-22T13:02:18.407Z,25.55
2018-03-22T13:04:47.561Z,25.42
2018-03-22T13:07:16.650Z,25.37
2018-03-22T13:09:45.618Z,25.42
2018-03-22T13:12:14.963Z,25.57
2018-03-22T13:14:44.029Z,25.59
2018-03-22T13:17:13.106Z,25.63
2018-03-22T13:19:42.594Z,25.67
2018-03-22T13:22:11.654Z,25.62
2018-03-22T13:24:40.786Z,25.67
2018-03-22T13:27:10.281Z,25.53
2018-03-22T13:29:39.342Z,25.49
2018-03-22T13:32:08.459Z,25.57
2018-03-22T13:34:37.549Z,25.54
2018-03-22T13:37:06.736Z,25.67
2018-03-22T13:39:35.790Z,25.69
2018-03-22T13:42:05.464Z,25.67
2018-03-22T13:44:34.640Z,25.65
2018-03-22T13:47:03.727Z,25.49
2018-03-22T13:49:33.078Z,25.39
2018-03-22T13:52:02.286Z,25.33
2018-03-22T13:54:31.379Z,25.35
2018-03-22T13:57:00.879Z,25.47
2018-03-22T13:59:29.987Z,25.53
2018-03-22T14:01:59.288Z,25.52
2018-03-22T14:04:28.811Z,25.52
2018-03-22T14:06:57.879Z,25.55
2018-03-22T14:09:28.136Z,25.58
2018-03-22T14:11:57.226Z,25.57
2018-03-22T14:14:26.303Z,25.57
2018-03-22T14:16:55.365Z,25.50
2018-03-22T14:19:24.495Z,25.29
2018-03-22T14:21:53.550Z,25.44
2018-03-22T14:24:22.646Z,25.56
2018-03-22T14:26:51.815Z,25.44
2018-03-22T14:29:23.486Z,25.38
2018-03-22T14:32:03.225Z,25.40
2018-03-22T14:34:40.838Z,25.57
2018-03-22T14:37:10.215Z,25.55
2018-03-22T14:39:39.699Z,25.58
2018-03-22T14:42:08.804Z,25.63
2018-03-22T14:44:37.906Z,25.61
2018-03-22T14:47:06.991Z,25.58
2018-03-22T14:49:36.047Z,25.56
2018-03-22T14:52:05.138Z,25.44
2018-03-22T14:54:34.253Z,25.43
2018-03-22T14:57:03.312Z,25.48
2018-03-22T14:59:32.413Z,25.56
2018-03-22T15:02:01.546Z,25.63
2018-03-22T15:04:30.630Z,25.64
2018-03-22T15:06:59.722Z,25.70
2018-03-22T15:09:28.808Z,25.66
2018-03-22T15:11:57.935Z,25.70
2018-03-22T15:14:27.025Z,25.53
2018-03-22T15:16:56.159Z,25.48
2018-03-22T15:19:25.416Z,25.51
2018-03-22T15:21:54.752Z,25.67
2018-03-22T15:24:23.867Z,25.58
2018-03-22T15:26:52.928Z,25.53
2018-03-22T15:29:22.205Z,25.50
2018-03-22T15:31:51.302Z,25.53
2018-03-22T15:34:20.415Z,25.47
2018-03-22T15:36:49.518Z,25.39
2018-03-22T15:39:18.420Z,25.45
2018-03-22T15:41:47.490Z,25.33
2018-03-22T15:44:16.425Z,25.36
2018-03-22T15:46:45.504Z,25.40
2018-03-22T15:49:15.004Z,25.35
2018-03-22T15:51:44.091Z,25.33
2018-03-22T15:54:13.159Z,25.32
2018-03-22T15:56:42.847Z,25.31
2018-03-22T15:59:11.945Z,25.31
2018-03-22T16:01:41.054Z,25.31
2018-03-22T16:04:10.145Z,25.33
2018-03-22T16:06:40.389Z,25.34
2018-03-22T16:09:09.463Z,25.39
2018-03-22T16:11:38.538Z,25.35
2018-03-22T16:14:07.637Z,25.34
2018-03-22T16:16:36.927Z,25.36
2018-03-22T16:19:06.006Z,25.31
2018-03-22T16:21:35.116Z,25.29
2018-03-22T16:24:04.222Z,25.40
2018-03-22T16:26:33.388Z,25.32
2018-03-22T16:29:02.763Z,25.31
2018-03-22T16:31:31.834Z,25.32
2018-03-22T16:34:00.908Z,25.34
2018-03-22T16:36:30.301Z,25.33
2018-03-22T16:38:59.370Z,25.39
2018-03-22T16:41:28.447Z,25.43
2018-03-22T16:43:57.966Z,25.36
2018-03-22T16:46:27.081Z,25.46
2018-03-22T16:48:56.142Z,25.58
2018-03-22T16:51:25.241Z,25.66
2018-03-22T16:53:54.311Z,25.70
2018-03-22T16:56:23.418Z,25.71
2018-03-22T16:58:52.526Z,25.70
2018-03-22T17:01:21.450Z,25.63
2018-03-22T17:03:50.510Z,25.56
2018-03-22T17:06:19.604Z,25.53
2018-03-22T17:08:48.691Z,25.60
2018-03-22T17:11:17.750Z,25.64
2018-03-22T17:13:46.841Z,25.65
2018-03-22T17:16:15.911Z,25.66
2018-03-22T17:18:44.983Z,25.65
2018-03-22T17:21:14.075Z,25.65
2018-03-22T17:23:43.143Z,25.64
2018-03-22T17:26:12.219Z,25.65
2018-03-22T17:28:41.311Z,25.62
2018-03-22T17:31:10.367Z,25.62
2018-03-22T17:33:39.417Z,25.63
2018-03-22T17:36:08.658Z,25.64
2018-03-22T17:38:37.732Z,25.61
2018-03-22T17:41:06.968Z,25.58
2018-03-22T17:43:36.323Z,25.55
2018-03-22T17:46:05.567Z,25.53
2018-03-22T17:48:34.455Z,25.52
2018-03-22T17:51:03.537Z,25.48
2018-03-22T17:53:32.605Z,25.45
2018-03-22T17:56:01.746Z,25.44
2018-03-22T17:58:30.831Z,25.41
2018-03-22T18:00:59.923Z,25.39
2018-03-22T18:03:29.001Z,25.38
2018-03-22T18:05:58.370Z,25.35
2018-03-22T18:08:27.486Z,25.34
2018-03-22T18:10:56.713Z,25.33
2018-03-22T18:13:25.615Z,25.31
2018-03-22T18:15:54.691Z,25.29
2018-03-22T18:18:24.210Z,25.29
2018-03-22T18:20:53.578Z,25.27
2018-03-22T18:23:23.383Z,25.25
2018-03-22T18:25:52.446Z,25.25
2018-03-22T18:28:21.550Z,25.24
2018-03-22T18:30:50.611Z,25.24
2018-03-22T18:33:19.671Z,25.24
2018-03-22T18:35:48.767Z,25.23
2018-03-22T18:38:17.818Z,25.22
2018-03-22T18:40:47.022Z,25.21
2018-03-22T18:43:16.112Z,25.20
2018-03-22T18:45:45.191Z,25.19
2018-03-22T18:48:14.242Z,25.18
2018-03-22T18:50:43.669Z,25.18
2018-03-22T18:53:12.730Z,25.18
2018-03-22T18:55:41.807Z,25.19
2018-03-22T18:58:11.375Z,25.17
2018-03-22T19:00:40.463Z,25.16
2018-03-22T19:03:09.549Z,25.16
2018-03-22T19:05:38.948Z,25.15
2018-03-22T19:08:08.023Z,25.14
2018-03-22T19:10:37.087Z,25.15
2018-03-22T19:13:06.169Z,25.14
2018-03-22T19:15:35.225Z,25.12
2018-03-22T19:18:04.295Z,25.13
2018-03-22T19:20:33.370Z,25.13
2018-03-22T19:27:58.398Z,25.10
2018-03-22T19:30:27.457Z,25.11
2018-03-22T19:32:56.332Z,25.12
2018-03-22T19:35:25.413Z,25.10
2018-03-22T19:37:54.482Z,25.11
2018-03-22T19:40:23.574Z,25.11
2018-03-22T19:42:52.792Z,25.10
2018-03-22T19:45:21.889Z,25.11
2018-03-22T19:47:50.958Z,25.09
2018-03-22T19:50:20.045Z,25.08
2018-03-22T19:52:49.132Z,25.09
2018-03-22T19:55:18.206Z,25.09
2018-03-22T19:57:47.307Z,25.10
2018-03-22T20:00:16.395Z,25.10
2018-03-22T20:02:45.448Z,25.09
2018-03-22T20:05:14.529Z,25.10
2018-03-22T20:07:43.590Z,25.10
2018-03-22T20:10:12.652Z,25.11
2018-03-22T20:12:41.725Z,25.11
2018-03-22T20:15:10.785Z,25.10
2018-03-22T20:17:39.855Z,25.10
2018-03-22T20:20:08.942Z,25.10
2018-03-22T20:22:37.811Z,25.10
2018-03-22T20:25:06.977Z,25.09
2018-03-22T20:27:36.064Z,25.10
2018-03-22T20:30:04.874Z,25.09
2018-03-22T20:32:33.927Z,25.10
2018-03-22T20:35:03.002Z,25.10
2018-03-22T20:37:31.890Z,25.11
2018-03-22T20:40:00.965Z,25.12
2018-03-22T20:42:30.278Z,25.10
2018-03-22T20:44:59.337Z,25.11
2018-03-22T20:47:28.303Z,25.10
2018-03-22T20:49:57.227Z,25.11
2018-03-22T20:52:26.297Z,25.12
2018-03-22T20:54:55.370Z,25.13
2018-03-22T20:57:24.769Z,25.12
2018-03-22T20:59:53.835Z,25.13
2018-03-22T21:02:22.711Z,25.12
2018-03-22T21:04:51.802Z,25.13
2018-03-22T21:07:20.871Z,25.13
2018-03-22T21:09:49.930Z,25.17
2018-03-22T21:12:19.028Z,25.20
2018-03-22T21:14:48.116Z,25.24
2018-03-22T21:17:17.370Z,25.27
2018-03-22T21:19:46.450Z,25.29
2018-03-22T21:22:15.606Z,25.31
2018-03-22T21:24:44.663Z,25.33
2018-03-22T21:27:13.998Z,25.34
2018-03-22T21:29:43.054Z,25.36
2018-03-22T21:32:12.529Z,25.39
2018-03-22T21:34:42.671Z,25.40
2018-03-22T21:37:12.732Z,25.42
2018-03-22T21:39:42.332Z,25.42
2018-03-22T21:42:11.381Z,25.44
2018-03-22T21:44:40.578Z,25.46
2018-03-22T21:47:21.150Z,25.46
2018-03-22T21:49:50.210Z,25.47
2018-03-22T21:52:31.077Z,25.48
2018-03-22T21:55:00.072Z,25.49
2018-03-22T21:57:29.135Z,25.50
2018-03-22T21:59:58.735Z,25.50
2018-03-22T22:02:27.797Z,25.51
2018-03-22T22:04:56.734Z,25.53
2018-03-22T22:07:25.966Z,25.52
2018-03-22T22:12:30.311Z,25.54
2018-03-22T22:14:59.370Z,25.55
2018-03-22T22:17:28.462Z,25.55
2018-03-22T22:19:57.539Z,25.56
2018-03-22T22:22:26.594Z,25.58
2018-03-22T22:24:55.645Z,25.55
2018-03-22T22:27:24.750Z,25.57
2018-03-22T22:29:53.804Z,25.57
2018-03-22T22:32:22.897Z,25.58
2018-03-22T22:34:52.041Z,25.58
2018-03-22T22:37:21.105Z,25.58
2018-03-22T22:39:50.160Z,25.59
2018-03-22T22:42:19.254Z,25.59
2018-03-22T22:44:48.322Z,25.59
2018-03-22T22:47:17.384Z,25.61
2018-03-22T22:49:46.752Z,25.60
2018-03-22T22:52:15.839Z,25.61
2018-03-22T22:54:44.898Z,25.62
2018-03-22T22:57:13.973Z,25.62
2018-03-22T22:59:43.095Z,25.61
2018-03-22T23:02:12.146Z,25.61
2018-03-22T23:04:41.511Z,25.61
2018-03-22T23:07:10.586Z,25.62
2018-03-22T23:09:44.999Z,25.63
2018-03-22T23:14:42.067Z,25.62
2018-03-22T23:17:11.152Z,25.62
2018-03-22T23:19:40.226Z,25.63
2018-03-22T23:22:09.287Z,25.62
2018-03-22T23:24:38.746Z,25.63
2018-03-22T23:27:07.802Z,25.62
2018-03-22T23:29:36.874Z,25.63
2018-03-22T23:32:06.350Z,25.64
2018-03-22T23:34:35.422Z,25.64
2018-03-22T23:37:04.485Z,25.63
2018-03-22T23:39:33.927Z,25.63
2018-03-22T23:42:02.801Z,25.62
2018-03-22T23:44:31.875Z,25.61
2018-03-22T23:47:00.965Z,25.62
2018-03-22T23:49:29.838Z,25.62
2018-03-22T23:51:59.150Z,25.62
2018-03-22T23:54:28.291Z,25.64
2018-03-22T23:56:57.344Z,25.62
2018-03-22T23:59:26.303Z,25.62
